sensor_id;sensor_type;location;lat;lon;timestamp;P1;durP1;ratioP1;P2;durP2;ratioP2
34212;SDS011;20477;51.390;8.102;2022-09-01T00:01:35;2.78;;;1.55;;
34212;SDS011;20477;51.390;8.102;2022-09-01T00:04:04;6.45;;;2.20;;
34212;SDS011;20477;51.390;8.102;2022-09-01T00:06:34;4.43;;;1.90;;
34212;SDS011;20477;51.390;8.102;2022-09-01T00:09:03;5.25;;;2.10;;
34212;SDS011;20477;51.390;8.102;2022-09-01T00:11:33;7.75;;;2.53;;
34212;SDS011;20477;51.390;8.102;2022-09-01T00:14:00;3.97;;;2.20;;
34212;SDS011;20477;51.390;8.102;2022-09-01T00:16:28;6.72;;;2.35;;
34212;SDS011;20477;51.390;8.102;2022-09-01T00:18:56;9.43;;;2.40;;
34212;SDS011;20477;51.390;8.102;2022-09-01T00:21:27;9.63;;;2.53;;
34212;SDS011;20477;51.390;8.102;2022-09-01T00:23:55;4.15;;;2.05;;
34212;SDS011;20477;51.390;8.102;2022-09-01T00:26:22;5.30;;;2.53;;
34212;SDS011;20477;51.390;8.102;2022-09-01T00:28:49;5.63;;;2.75;;
34212;SDS011;20477;51.390;8.102;2022-09-01T00:31:17;4.10;;;3.00;;
34212;SDS011;20477;51.390;8.102;2022-09-01T00:33:46;7.38;;;2.63;;
34212;SDS011;20477;51.390;8.102;2022-09-01T00:36:14;5.68;;;2.20;;
34212;SDS011;20477;51.390;8.102;2022-09-01T00:38:41;3.47;;;2.30;;
34212;SDS011;20477;51.390;8.102;2022-09-01T00:41:09;4.07;;;2.47;;
34212;SDS011;20477;51.390;8.102;2022-09-01T00:46:11;6.00;;;2.05;;
34212;SDS011;20477;51.390;8.102;2022-09-01T00:48:43;7.95;;;2.30;;
34212;SDS011;20477;51.390;8.102;2022-09-01T00:51:10;3.53;;;2.08;;
34212;SDS011;20477;51.390;8.102;2022-09-01T00:53:38;7.18;;;2.40;;
34212;SDS011;20477;51.390;8.102;2022-09-01T00:56:07;7.03;;;2.13;;
34212;SDS011;20477;51.390;8.102;2022-09-01T00:58:35;3.28;;;2.20;;
34212;SDS011;20477;51.390;8.102;2022-09-01T01:01:07;3.53;;;1.73;;
34212;SDS011;20477;51.390;8.102;2022-09-01T01:03:35;2.95;;;2.05;;
34212;SDS011;20477;51.390;8.102;2022-09-01T01:06:04;5.68;;;2.53;;
34212;SDS011;20477;51.390;8.102;2022-09-01T01:08:35;3.47;;;2.25;;
34212;SDS011;20477;51.390;8.102;2022-09-01T01:11:05;6.55;;;2.30;;
34212;SDS011;20477;51.390;8.102;2022-09-01T01:13:51;3.92;;;2.53;;
34212;SDS011;20477;51.390;8.102;2022-09-01T01:16:21;6.75;;;3.33;;
34212;SDS011;20477;51.390;8.102;2022-09-01T01:18:50;7.47;;;2.88;;
34212;SDS011;20477;51.390;8.102;2022-09-01T01:21:40;6.53;;;2.60;;
34212;SDS011;20477;51.390;8.102;2022-09-01T01:24:25;6.50;;;2.60;;
34212;SDS011;20477;51.390;8.102;2022-09-01T01:26:54;9.73;;;3.08;;
34212;SDS011;20477;51.390;8.102;2022-09-01T01:29:25;9.73;;;3.05;;
34212;SDS011;20477;51.390;8.102;2022-09-01T01:31:57;7.75;;;3.40;;
34212;SDS011;20477;51.390;8.102;2022-09-01T01:34:25;6.05;;;3.13;;
34212;SDS011;20477;51.390;8.102;2022-09-01T01:36:52;8.07;;;3.28;;
34212;SDS011;20477;51.390;8.102;2022-09-01T01:39:21;7.60;;;3.45;;
34212;SDS011;20477;51.390;8.102;2022-09-01T01:41:51;11.57;;;4.20;;
34212;SDS011;20477;51.390;8.102;2022-09-01T01:44:22;10.40;;;3.70;;
34212;SDS011;20477;51.390;8.102;2022-09-01T01:46:53;6.23;;;4.13;;
34212;SDS011;20477;51.390;8.102;2022-09-01T01:49:22;10.57;;;3.60;;
34212;SDS011;20477;51.390;8.102;2022-09-01T01:51:52;11.80;;;7.35;;
34212;SDS011;20477;51.390;8.102;2022-09-01T01:54:23;16.58;;;5.25;;
34212;SDS011;20477;51.390;8.102;2022-09-01T01:56:59;7.28;;;4.20;;
34212;SDS011;20477;51.390;8.102;2022-09-01T01:59:27;7.45;;;3.88;;
34212;SDS011;20477;51.390;8.102;2022-09-01T02:01:54;6.97;;;3.63;;
34212;SDS011;20477;51.390;8.102;2022-09-01T02:04:22;8.02;;;3.53;;
34212;SDS011;20477;51.390;8.102;2022-09-01T02:06:48;5.03;;;3.33;;
34212;SDS011;20477;51.390;8.102;2022-09-01T02:09:18;8.85;;;3.95;;
34212;SDS011;20477;51.390;8.102;2022-09-01T02:11:45;6.45;;;3.53;;
34212;SDS011;20477;51.390;8.102;2022-09-01T02:14:13;5.82;;;3.92;;
34212;SDS011;20477;51.390;8.102;2022-09-01T02:16:45;8.48;;;4.15;;
34212;SDS011;20477;51.390;8.102;2022-09-01T02:19:12;11.13;;;4.18;;
34212;SDS011;20477;51.390;8.102;2022-09-01T02:21:39;4.85;;;3.95;;
34212;SDS011;20477;51.390;8.102;2022-09-01T02:24:09;8.48;;;4.10;;
34212;SDS011;20477;51.390;8.102;2022-09-01T02:26:38;10.38;;;3.50;;
34212;SDS011;20477;51.390;8.102;2022-09-01T02:29:09;7.68;;;3.75;;
34212;SDS011;20477;51.390;8.102;2022-09-01T02:31:45;8.68;;;3.53;;
34212;SDS011;20477;51.390;8.102;2022-09-01T02:34:12;6.93;;;3.10;;
34212;SDS011;20477;51.390;8.102;2022-09-01T02:36:40;6.78;;;3.42;;
34212;SDS011;20477;51.390;8.102;2022-09-01T02:39:17;6.68;;;3.80;;
34212;SDS011;20477;51.390;8.102;2022-09-01T02:41:45;6.70;;;3.63;;
34212;SDS011;20477;51.390;8.102;2022-09-01T02:44:12;6.68;;;3.35;;
34212;SDS011;20477;51.390;8.102;2022-09-01T02:46:41;5.63;;;3.80;;
34212;SDS011;20477;51.390;8.102;2022-09-01T02:49:10;10.18;;;3.75;;
34212;SDS011;20477;51.390;8.102;2022-09-01T02:51:41;6.50;;;3.45;;
34212;SDS011;20477;51.390;8.102;2022-09-01T02:54:10;4.40;;;3.47;;
34212;SDS011;20477;51.390;8.102;2022-09-01T02:56:40;9.80;;;3.65;;
34212;SDS011;20477;51.390;8.102;2022-09-01T02:59:09;9.25;;;3.28;;
34212;SDS011;20477;51.390;8.102;2022-09-01T03:01:38;7.22;;;3.60;;
34212;SDS011;20477;51.390;8.102;2022-09-01T03:04:06;9.48;;;3.03;;
34212;SDS011;20477;51.390;8.102;2022-09-01T03:06:35;6.28;;;3.40;;
34212;SDS011;20477;51.390;8.102;2022-09-01T03:09:04;5.85;;;3.72;;
34212;SDS011;20477;51.390;8.102;2022-09-01T03:11:38;18.38;;;3.55;;
34212;SDS011;20477;51.390;8.102;2022-09-01T03:14:06;7.35;;;3.90;;
34212;SDS011;20477;51.390;8.102;2022-09-01T03:16:34;4.88;;;3.53;;
34212;SDS011;20477;51.390;8.102;2022-09-01T03:19:02;9.85;;;3.70;;
34212;SDS011;20477;51.390;8.102;2022-09-01T03:21:34;5.53;;;3.67;;
34212;SDS011;20477;51.390;8.102;2022-09-01T03:24:02;8.10;;;3.78;;
34212;SDS011;20477;51.390;8.102;2022-09-01T03:26:29;11.05;;;4.53;;
34212;SDS011;20477;51.390;8.102;2022-09-01T03:28:57;8.40;;;3.72;;
34212;SDS011;20477;51.390;8.102;2022-09-01T03:31:24;6.40;;;3.13;;
34212;SDS011;20477;51.390;8.102;2022-09-01T03:33:57;7.60;;;3.50;;
34212;SDS011;20477;51.390;8.102;2022-09-01T03:36:25;9.45;;;3.85;;
34212;SDS011;20477;51.390;8.102;2022-09-01T03:38:53;6.60;;;3.63;;
34212;SDS011;20477;51.390;8.102;2022-09-01T03:41:22;10.73;;;4.07;;
34212;SDS011;20477;51.390;8.102;2022-09-01T03:43:51;4.97;;;3.22;;
34212;SDS011;20477;51.390;8.102;2022-09-01T03:46:21;12.38;;;3.58;;
34212;SDS011;20477;51.390;8.102;2022-09-01T03:48:50;8.15;;;3.40;;
34212;SDS011;20477;51.390;8.102;2022-09-01T03:51:24;7.00;;;3.10;;
34212;SDS011;20477;51.390;8.102;2022-09-01T03:53:52;4.88;;;3.55;;
34212;SDS011;20477;51.390;8.102;2022-09-01T03:56:23;5.75;;;3.33;;
34212;SDS011;20477;51.390;8.102;2022-09-01T03:58:53;9.33;;;4.00;;
34212;SDS011;20477;51.390;8.102;2022-09-01T04:01:22;10.60;;;4.47;;
34212;SDS011;20477;51.390;8.102;2022-09-01T04:03:49;6.00;;;3.53;;
34212;SDS011;20477;51.390;8.102;2022-09-01T04:06:18;6.38;;;3.40;;
34212;SDS011;20477;51.390;8.102;2022-09-01T04:08:47;8.32;;;3.47;;
34212;SDS011;20477;51.390;8.102;2022-09-01T04:11:17;19.35;;;4.07;;
34212;SDS011;20477;51.390;8.102;2022-09-01T04:13:48;9.93;;;4.22;;
34212;SDS011;20477;51.390;8.102;2022-09-01T04:19:09;13.10;;;4.13;;
34212;SDS011;20477;51.390;8.102;2022-09-01T04:21:52;9.63;;;4.10;;
34212;SDS011;20477;51.390;8.102;2022-09-01T04:24:21;12.32;;;4.45;;
34212;SDS011;20477;51.390;8.102;2022-09-01T04:26:50;6.35;;;4.13;;
34212;SDS011;20477;51.390;8.102;2022-09-01T04:29:18;7.55;;;4.25;;
34212;SDS011;20477;51.390;8.102;2022-09-01T04:31:56;8.77;;;4.38;;
34212;SDS011;20477;51.390;8.102;2022-09-01T04:34:29;8.25;;;4.10;;
34212;SDS011;20477;51.390;8.102;2022-09-01T04:39:38;6.38;;;4.07;;
34212;SDS011;20477;51.390;8.102;2022-09-01T04:42:08;8.48;;;4.82;;
34212;SDS011;20477;51.390;8.102;2022-09-01T04:44:35;12.30;;;4.60;;
34212;SDS011;20477;51.390;8.102;2022-09-01T04:47:02;5.30;;;4.10;;
34212;SDS011;20477;51.390;8.102;2022-09-01T04:49:36;11.35;;;4.60;;
34212;SDS011;20477;51.390;8.102;2022-09-01T04:52:03;7.38;;;4.65;;
34212;SDS011;20477;51.390;8.102;2022-09-01T04:54:30;9.85;;;4.40;;
34212;SDS011;20477;51.390;8.102;2022-09-01T04:57:00;12.13;;;5.07;;
34212;SDS011;20477;51.390;8.102;2022-09-01T04:59:27;6.93;;;4.78;;
34212;SDS011;20477;51.390;8.102;2022-09-01T05:01:55;9.13;;;4.30;;
34212;SDS011;20477;51.390;8.102;2022-09-01T05:04:26;9.82;;;4.05;;
34212;SDS011;20477;51.390;8.102;2022-09-01T05:06:59;5.82;;;3.65;;
34212;SDS011;20477;51.390;8.102;2022-09-01T05:09:28;7.07;;;3.97;;
34212;SDS011;20477;51.390;8.102;2022-09-01T05:11:57;9.98;;;4.43;;
34212;SDS011;20477;51.390;8.102;2022-09-01T05:14:34;12.70;;;4.00;;
34212;SDS011;20477;51.390;8.102;2022-09-01T05:17:01;9.05;;;4.18;;
34212;SDS011;20477;51.390;8.102;2022-09-01T05:19:29;11.40;;;3.80;;
34212;SDS011;20477;51.390;8.102;2022-09-01T05:21:56;8.23;;;4.05;;
34212;SDS011;20477;51.390;8.102;2022-09-01T05:24:23;16.33;;;4.00;;
34212;SDS011;20477;51.390;8.102;2022-09-01T05:26:55;12.53;;;3.37;;
34212;SDS011;20477;51.390;8.102;2022-09-01T05:29:23;5.32;;;4.22;;
34212;SDS011;20477;51.390;8.102;2022-09-01T05:31:53;10.07;;;3.90;;
34212;SDS011;20477;51.390;8.102;2022-09-01T05:34:21;8.38;;;3.80;;
34212;SDS011;20477;51.390;8.102;2022-09-01T05:36:54;6.15;;;3.88;;
34212;SDS011;20477;51.390;8.102;2022-09-01T05:39:23;8.77;;;3.65;;
34212;SDS011;20477;51.390;8.102;2022-09-01T05:41:51;6.50;;;4.15;;
34212;SDS011;20477;51.390;8.102;2022-09-01T05:44:19;10.27;;;3.80;;
34212;SDS011;20477;51.390;8.102;2022-09-01T05:46:48;6.45;;;3.90;;
34212;SDS011;20477;51.390;8.102;2022-09-01T05:49:16;8.00;;;3.53;;
34212;SDS011;20477;51.390;8.102;2022-09-01T05:51:45;9.70;;;3.88;;
34212;SDS011;20477;51.390;8.102;2022-09-01T05:54:20;11.30;;;3.70;;
34212;SDS011;20477;51.390;8.102;2022-09-01T05:56:50;8.93;;;3.13;;
34212;SDS011;20477;51.390;8.102;2022-09-01T05:59:19;11.63;;;3.65;;
34212;SDS011;20477;51.390;8.102;2022-09-01T06:01:51;6.60;;;3.30;;
34212;SDS011;20477;51.390;8.102;2022-09-01T06:04:19;11.60;;;3.70;;
34212;SDS011;20477;51.390;8.102;2022-09-01T06:06:47;7.43;;;2.92;;
34212;SDS011;20477;51.390;8.102;2022-09-01T06:09:35;5.63;;;3.20;;
34212;SDS011;20477;51.390;8.102;2022-09-01T06:12:07;4.78;;;2.88;;
34212;SDS011;20477;51.390;8.102;2022-09-01T06:14:38;4.25;;;3.47;;
34212;SDS011;20477;51.390;8.102;2022-09-01T06:17:05;8.90;;;3.40;;
34212;SDS011;20477;51.390;8.102;2022-09-01T06:19:35;6.85;;;3.58;;
34212;SDS011;20477;51.390;8.102;2022-09-01T06:22:03;6.20;;;3.10;;
34212;SDS011;20477;51.390;8.102;2022-09-01T06:24:31;6.20;;;3.10;;
34212;SDS011;20477;51.390;8.102;2022-09-01T06:26:58;11.35;;;3.25;;
34212;SDS011;20477;51.390;8.102;2022-09-01T06:29:25;8.15;;;3.22;;
34212;SDS011;20477;51.390;8.102;2022-09-01T06:31:52;6.90;;;3.28;;
34212;SDS011;20477;51.390;8.102;2022-09-01T06:34:19;7.25;;;2.45;;
34212;SDS011;20477;51.390;8.102;2022-09-01T06:36:46;8.70;;;2.78;;
34212;SDS011;20477;51.390;8.102;2022-09-01T06:39:16;3.88;;;2.95;;
34212;SDS011;20477;51.390;8.102;2022-09-01T06:41:46;4.53;;;2.45;;
34212;SDS011;20477;51.390;8.102;2022-09-01T06:44:15;9.07;;;3.00;;
34212;SDS011;20477;51.390;8.102;2022-09-01T06:46:48;8.13;;;3.47;;
34212;SDS011;20477;51.390;8.102;2022-09-01T06:49:18;7.60;;;2.80;;
34212;SDS011;20477;51.390;8.102;2022-09-01T06:51:46;13.15;;;3.10;;
34212;SDS011;20477;51.390;8.102;2022-09-01T06:54:15;7.25;;;3.25;;
34212;SDS011;20477;51.390;8.102;2022-09-01T06:56:46;5.50;;;3.08;;
34212;SDS011;20477;51.390;8.102;2022-09-01T06:59:33;6.78;;;2.53;;
34212;SDS011;20477;51.390;8.102;2022-09-01T07:02:00;6.95;;;2.97;;
34212;SDS011;20477;51.390;8.102;2022-09-01T07:04:48;6.45;;;3.08;;
34212;SDS011;20477;51.390;8.102;2022-09-01T07:07:17;4.53;;;2.58;;
34212;SDS011;20477;51.390;8.102;2022-09-01T07:10:04;8.07;;;2.90;;
34212;SDS011;20477;51.390;8.102;2022-09-01T07:12:51;6.47;;;2.20;;
34212;SDS011;20477;51.390;8.102;2022-09-01T07:15:39;4.50;;;2.38;;
34212;SDS011;20477;51.390;8.102;2022-09-01T07:18:27;8.00;;;2.55;;
34212;SDS011;20477;51.390;8.102;2022-09-01T07:20:56;6.55;;;1.85;;
34212;SDS011;20477;51.390;8.102;2022-09-01T07:23:42;5.85;;;2.08;;
34212;SDS011;20477;51.390;8.102;2022-09-01T07:26:14;6.00;;;2.10;;
34212;SDS011;20477;51.390;8.102;2022-09-01T07:28:52;14.00;;;1.88;;
34212;SDS011;20477;51.390;8.102;2022-09-01T07:31:34;4.82;;;1.70;;
34212;SDS011;20477;51.390;8.102;2022-09-01T07:34:24;5.28;;;1.73;;
34212;SDS011;20477;51.390;8.102;2022-09-01T07:37:11;5.05;;;1.77;;
34212;SDS011;20477;51.390;8.102;2022-09-01T07:39:58;6.45;;;2.10;;
34212;SDS011;20477;51.390;8.102;2022-09-01T07:42:46;5.07;;;1.90;;
34212;SDS011;20477;51.390;8.102;2022-09-01T07:45:34;3.60;;;2.03;;
34212;SDS011;20477;51.390;8.102;2022-09-01T07:48:13;7.43;;;1.70;;
34212;SDS011;20477;51.390;8.102;2022-09-01T07:51:05;5.80;;;1.83;;
34212;SDS011;20477;51.390;8.102;2022-09-01T07:53:52;10.77;;;2.53;;
34212;SDS011;20477;51.390;8.102;2022-09-01T07:56:20;6.57;;;2.10;;
34212;SDS011;20477;51.390;8.102;2022-09-01T07:58:49;6.43;;;2.95;;
34212;SDS011;20477;51.390;8.102;2022-09-01T08:01:20;11.93;;;2.08;;
34212;SDS011;20477;51.390;8.102;2022-09-01T08:03:51;4.57;;;1.83;;
34212;SDS011;20477;51.390;8.102;2022-09-01T08:06:20;5.53;;;1.83;;
34212;SDS011;20477;51.390;8.102;2022-09-01T08:08:53;5.05;;;1.60;;
34212;SDS011;20477;51.390;8.102;2022-09-01T08:11:24;6.90;;;2.15;;
34212;SDS011;20477;51.390;8.102;2022-09-01T08:14:14;9.65;;;1.77;;
34212;SDS011;20477;51.390;8.102;2022-09-01T08:16:43;2.72;;;1.30;;
34212;SDS011;20477;51.390;8.102;2022-09-01T08:19:18;3.65;;;1.58;;
34212;SDS011;20477;51.390;8.102;2022-09-01T08:21:45;9.48;;;1.73;;
34212;SDS011;20477;51.390;8.102;2022-09-01T08:24:12;5.38;;;1.63;;
34212;SDS011;20477;51.390;8.102;2022-09-01T08:26:39;4.90;;;1.65;;
34212;SDS011;20477;51.390;8.102;2022-09-01T08:29:06;2.28;;;1.40;;
34212;SDS011;20477;51.390;8.102;2022-09-01T08:31:33;4.18;;;1.40;;
34212;SDS011;20477;51.390;8.102;2022-09-01T08:34:01;5.55;;;1.27;;
34212;SDS011;20477;51.390;8.102;2022-09-01T08:36:30;4.97;;;1.50;;
34212;SDS011;20477;51.390;8.102;2022-09-01T08:38:57;3.53;;;1.30;;
34212;SDS011;20477;51.390;8.102;2022-09-01T08:41:35;3.08;;;1.40;;
34212;SDS011;20477;51.390;8.102;2022-09-01T08:46:48;5.63;;;1.20;;
34212;SDS011;20477;51.390;8.102;2022-09-01T08:49:22;2.80;;;1.33;;
34212;SDS011;20477;51.390;8.102;2022-09-01T08:51:54;3.90;;;1.20;;
34212;SDS011;20477;51.390;8.102;2022-09-01T08:57:05;3.30;;;1.08;;
34212;SDS011;20477;51.390;8.102;2022-09-01T08:59:35;8.23;;;1.73;;
34212;SDS011;20477;51.390;8.102;2022-09-01T09:02:12;2.15;;;1.30;;
34212;SDS011;20477;51.390;8.102;2022-09-01T09:04:46;2.28;;;1.33;;
34212;SDS011;20477;51.390;8.102;2022-09-01T09:07:55;4.68;;;1.08;;
34212;SDS011;20477;51.390;8.102;2022-09-01T09:10:38;2.17;;;1.40;;
34212;SDS011;20477;51.390;8.102;2022-09-01T09:13:30;3.10;;;1.58;;
34212;SDS011;20477;51.390;8.102;2022-09-01T09:15:59;3.60;;;1.20;;
34212;SDS011;20477;51.390;8.102;2022-09-01T09:18:41;4.35;;;1.17;;
34212;SDS011;20477;51.390;8.102;2022-09-01T09:24:01;2.40;;;1.02;;
34212;SDS011;20477;51.390;8.102;2022-09-01T09:26:53;1.98;;;1.10;;
34212;SDS011;20477;51.390;8.102;2022-09-01T09:29:21;4.45;;;1.50;;
34212;SDS011;20477;51.390;8.102;2022-09-01T09:32:00;1.80;;;1.10;;
34212;SDS011;20477;51.390;8.102;2022-09-01T09:34:31;3.85;;;1.17;;
34212;SDS011;20477;51.390;8.102;2022-09-01T09:37:01;5.45;;;1.45;;
34212;SDS011;20477;51.390;8.102;2022-09-01T09:39:42;3.15;;;1.42;;
34212;SDS011;20477;51.390;8.102;2022-09-01T09:42:11;5.05;;;1.20;;
34212;SDS011;20477;51.390;8.102;2022-09-01T09:44:42;3.00;;;1.17;;
34212;SDS011;20477;51.390;8.102;2022-09-01T09:47:32;1.70;;;1.05;;
34212;SDS011;20477;51.390;8.102;2022-09-01T09:50:20;2.97;;;1.48;;
34212;SDS011;20477;51.390;8.102;2022-09-01T09:55:48;1.30;;;1.03;;
34212;SDS011;20477;51.390;8.102;2022-09-01T09:58:21;5.07;;;1.05;;
34212;SDS011;20477;51.390;8.102;2022-09-01T10:01:10;3.53;;;1.15;;
34212;SDS011;20477;51.390;8.102;2022-09-01T10:06:10;1.67;;;1.08;;
34212;SDS011;20477;51.390;8.102;2022-09-01T10:08:41;2.45;;;1.00;;
34212;SDS011;20477;51.390;8.102;2022-09-01T10:11:22;2.10;;;1.10;;
34212;SDS011;20477;51.390;8.102;2022-09-01T10:14:01;3.63;;;1.35;;
34212;SDS011;20477;51.390;8.102;2022-09-01T10:16:31;2.17;;;1.05;;
34212;SDS011;20477;51.390;8.102;2022-09-01T10:19:00;4.68;;;1.40;;
34212;SDS011;20477;51.390;8.102;2022-09-01T10:23:59;4.57;;;1.17;;
34212;SDS011;20477;51.390;8.102;2022-09-01T10:26:46;6.65;;;1.30;;
34212;SDS011;20477;51.390;8.102;2022-09-01T10:29:19;2.70;;;0.98;;
34212;SDS011;20477;51.390;8.102;2022-09-01T10:31:50;8.40;;;1.17;;
34212;SDS011;20477;51.390;8.102;2022-09-01T10:34:38;3.20;;;1.10;;
34212;SDS011;20477;51.390;8.102;2022-09-01T10:37:07;1.50;;;1.13;;
34212;SDS011;20477;51.390;8.102;2022-09-01T10:40:08;1.70;;;1.10;;
34212;SDS011;20477;51.390;8.102;2022-09-01T10:42:40;6.80;;;1.40;;
34212;SDS011;20477;51.390;8.102;2022-09-01T10:45:19;3.13;;;0.98;;
34212;SDS011;20477;51.390;8.102;2022-09-01T10:53:47;3.70;;;1.33;;
34212;SDS011;20477;51.390;8.102;2022-09-01T11:02:15;2.97;;;1.05;;
34212;SDS011;20477;51.390;8.102;2022-09-01T11:13:27;1.85;;;1.00;;
34212;SDS011;20477;51.390;8.102;2022-09-01T11:27:08;1.60;;;0.75;;
34212;SDS011;20477;51.390;8.102;2022-09-01T11:32:35;5.20;;;1.33;;
34212;SDS011;20477;51.390;8.102;2022-09-01T11:35:12;3.90;;;1.15;;
34212;SDS011;20477;51.390;8.102;2022-09-01T11:37:48;5.68;;;1.20;;
34212;SDS011;20477;51.390;8.102;2022-09-01T11:40:21;3.83;;;1.27;;
34212;SDS011;20477;51.390;8.102;2022-09-01T11:42:58;1.30;;;0.95;;
34212;SDS011;20477;51.390;8.102;2022-09-01T11:45:34;3.03;;;1.23;;
34212;SDS011;20477;51.390;8.102;2022-09-01T11:50:37;8.00;;;0.90;;
34212;SDS011;20477;51.390;8.102;2022-09-01T11:53:18;1.58;;;0.95;;
34212;SDS011;20477;51.390;8.102;2022-09-01T11:55:48;3.17;;;1.15;;
34212;SDS011;20477;51.390;8.102;2022-09-01T12:01:11;1.27;;;1.05;;
34212;SDS011;20477;51.390;8.102;2022-09-01T12:03:40;1.60;;;0.85;;
34212;SDS011;20477;51.390;8.102;2022-09-01T12:06:09;3.38;;;1.42;;
34212;SDS011;20477;51.390;8.102;2022-09-01T12:08:41;5.90;;;1.10;;
34212;SDS011;20477;51.390;8.102;2022-09-01T12:11:09;4.70;;;1.02;;
34212;SDS011;20477;51.390;8.102;2022-09-01T12:13:54;3.90;;;1.13;;
34212;SDS011;20477;51.390;8.102;2022-09-01T12:16:24;2.67;;;0.73;;
34212;SDS011;20477;51.390;8.102;2022-09-01T12:18:52;3.08;;;0.90;;
34212;SDS011;20477;51.390;8.102;2022-09-01T12:23:53;3.13;;;0.98;;
34212;SDS011;20477;51.390;8.102;2022-09-01T12:26:49;1.42;;;0.80;;
34212;SDS011;20477;51.390;8.102;2022-09-01T12:29:17;1.00;;;0.90;;
34212;SDS011;20477;51.390;8.102;2022-09-01T12:31:45;9.38;;;1.20;;
34212;SDS011;20477;51.390;8.102;2022-09-01T12:34:24;0.85;;;0.80;;
34212;SDS011;20477;51.390;8.102;2022-09-01T12:39:43;4.25;;;1.10;;
34212;SDS011;20477;51.390;8.102;2022-09-01T12:44:47;2.60;;;1.23;;
34212;SDS011;20477;51.390;8.102;2022-09-01T12:52:45;3.70;;;1.17;;
34212;SDS011;20477;51.390;8.102;2022-09-01T12:55:18;2.67;;;0.90;;
34212;SDS011;20477;51.390;8.102;2022-09-01T12:58:07;1.88;;;0.90;;
34212;SDS011;20477;51.390;8.102;2022-09-01T13:00:36;1.85;;;0.90;;
34212;SDS011;20477;51.390;8.102;2022-09-01T13:03:24;1.98;;;0.98;;
34212;SDS011;20477;51.390;8.102;2022-09-01T13:05:53;1.13;;;0.93;;
34212;SDS011;20477;51.390;8.102;2022-09-01T13:08:22;3.80;;;1.10;;
34212;SDS011;20477;51.390;8.102;2022-09-01T13:10:57;2.88;;;1.02;;
34212;SDS011;20477;51.390;8.102;2022-09-01T13:13:27;8.30;;;1.10;;
34212;SDS011;20477;51.390;8.102;2022-09-01T13:15:57;8.30;;;1.50;;
34212;SDS011;20477;51.390;8.102;2022-09-01T13:18:39;2.90;;;0.85;;
34212;SDS011;20477;51.390;8.102;2022-09-01T13:21:27;4.50;;;1.10;;
34212;SDS011;20477;51.390;8.102;2022-09-01T13:23:56;2.67;;;1.02;;
34212;SDS011;20477;51.390;8.102;2022-09-01T13:26:24;1.83;;;0.90;;
34212;SDS011;20477;51.390;8.102;2022-09-01T13:28:51;1.42;;;1.10;;
34212;SDS011;20477;51.390;8.102;2022-09-01T13:31:19;1.77;;;0.95;;
34212;SDS011;20477;51.390;8.102;2022-09-01T13:33:54;3.28;;;1.23;;
34212;SDS011;20477;51.390;8.102;2022-09-01T13:36:41;1.38;;;1.25;;
34212;SDS011;20477;51.390;8.102;2022-09-01T13:39:14;1.42;;;0.90;;
34212;SDS011;20477;51.390;8.102;2022-09-01T13:41:41;6.18;;;1.85;;
34212;SDS011;20477;51.390;8.102;2022-09-01T13:44:08;1.40;;;1.05;;
34212;SDS011;20477;51.390;8.102;2022-09-01T13:46:35;4.70;;;1.08;;
34212;SDS011;20477;51.390;8.102;2022-09-01T13:49:28;2.17;;;0.80;;
34212;SDS011;20477;51.390;8.102;2022-09-01T13:52:15;3.28;;;1.30;;
34212;SDS011;20477;51.390;8.102;2022-09-01T13:54:42;2.35;;;1.02;;
34212;SDS011;20477;51.390;8.102;2022-09-01T13:57:10;2.47;;;1.30;;
34212;SDS011;20477;51.390;8.102;2022-09-01T13:59:37;0.80;;;0.80;;
34212;SDS011;20477;51.390;8.102;2022-09-01T14:02:04;1.90;;;1.23;;
34212;SDS011;20477;51.390;8.102;2022-09-01T14:04:31;0.82;;;0.82;;
34212;SDS011;20477;51.390;8.102;2022-09-01T14:06:58;4.07;;;1.48;;
34212;SDS011;20477;51.390;8.102;2022-09-01T14:09:25;1.02;;;0.80;;
34212;SDS011;20477;51.390;8.102;2022-09-01T14:11:53;1.25;;;1.00;;
34212;SDS011;20477;51.390;8.102;2022-09-01T14:14:20;2.40;;;0.93;;
34212;SDS011;20477;51.390;8.102;2022-09-01T14:16:48;5.40;;;1.10;;
34212;SDS011;20477;51.390;8.102;2022-09-01T14:19:15;8.02;;;1.48;;
34212;SDS011;20477;51.390;8.102;2022-09-01T14:21:42;5.28;;;1.15;;
34212;SDS011;20477;51.390;8.102;2022-09-01T14:24:11;5.25;;;1.20;;
34212;SDS011;20477;51.390;8.102;2022-09-01T14:26:41;2.90;;;1.30;;
34212;SDS011;20477;51.390;8.102;2022-09-01T14:29:08;2.83;;;1.05;;
34212;SDS011;20477;51.390;8.102;2022-09-01T14:31:35;4.25;;;1.02;;
34212;SDS011;20477;51.390;8.102;2022-09-01T14:34:03;3.13;;;1.30;;
34212;SDS011;20477;51.390;8.102;2022-09-01T14:36:30;6.65;;;1.30;;
34212;SDS011;20477;51.390;8.102;2022-09-01T14:38:57;2.45;;;1.08;;
34212;SDS011;20477;51.390;8.102;2022-09-01T14:41:24;3.28;;;1.10;;
34212;SDS011;20477;51.390;8.102;2022-09-01T14:43:53;1.10;;;0.90;;
34212;SDS011;20477;51.390;8.102;2022-09-01T14:46:24;2.58;;;1.35;;
34212;SDS011;20477;51.390;8.102;2022-09-01T14:48:52;3.67;;;1.10;;
34212;SDS011;20477;51.390;8.102;2022-09-01T14:51:21;6.20;;;1.17;;
34212;SDS011;20477;51.390;8.102;2022-09-01T14:54:17;1.88;;;1.10;;
34212;SDS011;20477;51.390;8.102;2022-09-01T14:56:43;3.92;;;1.30;;
34212;SDS011;20477;51.390;8.102;2022-09-01T14:59:31;4.47;;;1.25;;
34212;SDS011;20477;51.390;8.102;2022-09-01T15:01:58;11.93;;;1.55;;
34212;SDS011;20477;51.390;8.102;2022-09-01T15:04:25;3.88;;;1.10;;
34212;SDS011;20477;51.390;8.102;2022-09-01T15:06:53;2.95;;;1.25;;
34212;SDS011;20477;51.390;8.102;2022-09-01T15:09:20;1.95;;;0.93;;
34212;SDS011;20477;51.390;8.102;2022-09-01T15:11:47;4.18;;;1.23;;
34212;SDS011;20477;51.390;8.102;2022-09-01T15:14:14;3.22;;;0.93;;
34212;SDS011;20477;51.390;8.102;2022-09-01T15:16:42;4.47;;;1.27;;
34212;SDS011;20477;51.390;8.102;2022-09-01T15:19:10;3.28;;;1.10;;
34212;SDS011;20477;51.390;8.102;2022-09-01T15:21:38;5.18;;;1.50;;
34212;SDS011;20477;51.390;8.102;2022-09-01T15:24:06;3.90;;;1.13;;
34212;SDS011;20477;51.390;8.102;2022-09-01T15:26:34;3.22;;;1.02;;
34212;SDS011;20477;51.390;8.102;2022-09-01T15:29:02;3.42;;;1.23;;
34212;SDS011;20477;51.390;8.102;2022-09-01T15:31:30;5.63;;;1.27;;
34212;SDS011;20477;51.390;8.102;2022-09-01T15:33:59;6.35;;;1.20;;
34212;SDS011;20477;51.390;8.102;2022-09-01T15:36:28;2.80;;;1.20;;
34212;SDS011;20477;51.390;8.102;2022-09-01T15:38:56;2.45;;;1.17;;
34212;SDS011;20477;51.390;8.102;2022-09-01T15:41:25;1.65;;;1.00;;
34212;SDS011;20477;51.390;8.102;2022-09-01T15:43:53;4.43;;;1.50;;
34212;SDS011;20477;51.390;8.102;2022-09-01T15:46:21;2.97;;;1.13;;
34212;SDS011;20477;51.390;8.102;2022-09-01T15:48:56;2.25;;;1.30;;
34212;SDS011;20477;51.390;8.102;2022-09-01T15:51:31;8.45;;;1.30;;
34212;SDS011;20477;51.390;8.102;2022-09-01T15:54:06;3.17;;;0.90;;
34212;SDS011;20477;51.390;8.102;2022-09-01T15:56:35;5.38;;;1.67;;
34212;SDS011;20477;51.390;8.102;2022-09-01T15:59:02;2.78;;;1.15;;
34212;SDS011;20477;51.390;8.102;2022-09-01T16:01:31;4.00;;;1.05;;
34212;SDS011;20477;51.390;8.102;2022-09-01T16:04:02;1.75;;;1.10;;
34212;SDS011;20477;51.390;8.102;2022-09-01T16:06:30;3.38;;;1.20;;
34212;SDS011;20477;51.390;8.102;2022-09-01T16:08:58;4.60;;;1.40;;
34212;SDS011;20477;51.390;8.102;2022-09-01T16:11:25;3.72;;;1.30;;
34212;SDS011;20477;51.390;8.102;2022-09-01T16:13:52;4.75;;;1.25;;
34212;SDS011;20477;51.390;8.102;2022-09-01T16:16:30;10.38;;;1.55;;
34212;SDS011;20477;51.390;8.102;2022-09-01T16:24:24;6.25;;;1.63;;
34212;SDS011;20477;51.390;8.102;2022-09-01T16:26:51;4.72;;;1.30;;
34212;SDS011;20477;51.390;8.102;2022-09-01T16:29:20;3.75;;;1.10;;
34212;SDS011;20477;51.390;8.102;2022-09-01T16:32:00;4.22;;;1.27;;
34212;SDS011;20477;51.390;8.102;2022-09-01T16:34:27;5.25;;;1.15;;
34212;SDS011;20477;51.390;8.102;2022-09-01T16:37:03;3.92;;;1.00;;